sensor_id;sensor_type;location;lat;lon;timestamp;P1;durP1;ratioP1;P2;durP2;ratioP2
16524;SDS011;8375;33.594;-117.718;2023-03-17T00:00:47;10.90;;;3.43;;
16524;SDS011;8375;33.594;-117.718;2023-03-17T00:03:18;11.20;;;3.30;;
16524;SDS011;8375;33.594;-117.718;2023-03-17T00:05:50;12.80;;;3.10;;
16524;SDS011;8375;33.594;-117.718;2023-03-17T00:08:22;9.07;;;2.80;;
16524;SDS011;8375;33.594;-117.718;2023-03-17T00:10:53;10.50;;;3.20;;
16524;SDS011;8375;33.594;-117.718;2023-03-17T00:13:22;9.67;;;3.30;;
16524;SDS011;8375;33.594;-117.718;2023-03-17T00:15:51;8.83;;;2.73;;
16524;SDS011;8375;33.594;-117.718;2023-03-17T00:18:22;12.23;;;2.83;;
16524;SDS011;8375;33.594;-117.718;2023-03-17T00:20:51;9.47;;;2.70;;
16524;SDS011;8375;33.594;-117.718;2023-03-17T00:23:21;10.20;;;2.90;;
16524;SDS011;8375;33.594;-117.718;2023-03-17T00:25:51;10.63;;;3.00;;
16524;SDS011;8375;33.594;-117.718;2023-03-17T00:28:22;9.57;;;3.37;;
16524;SDS011;8375;33.594;-117.718;2023-03-17T00:30:52;9.83;;;2.80;;
16524;SDS011;8375;33.594;-117.718;2023-03-17T00:33:24;15.40;;;3.40;;
16524;SDS011;8375;33.594;-117.718;2023-03-17T00:35:54;10.40;;;3.40;;
16524;SDS011;8375;33.594;-117.718;2023-03-17T00:38:26;10.90;;;2.90;;
16524;SDS011;8375;33.594;-117.718;2023-03-17T00:40:54;11.77;;;3.27;;
16524;SDS011;8375;33.594;-117.718;2023-03-17T00:43:23;8.93;;;2.97;;
16524;SDS011;8375;33.594;-117.718;2023-03-17T00:45:52;11.23;;;3.33;;
16524;SDS011;8375;33.594;-117.718;2023-03-17T00:48:21;9.53;;;3.13;;
16524;SDS011;8375;33.594;-117.718;2023-03-17T00:50:50;10.27;;;3.23;;
16524;SDS011;8375;33.594;-117.718;2023-03-17T00:53:19;10.63;;;3.23;;
16524;SDS011;8375;33.594;-117.718;2023-03-17T00:55:49;11.57;;;3.30;;
16524;SDS011;8375;33.594;-117.718;2023-03-17T00:58:21;12.10;;;3.30;;
16524;SDS011;8375;33.594;-117.718;2023-03-17T01:00:53;11.10;;;3.07;;
16524;SDS011;8375;33.594;-117.718;2023-03-17T01:03:22;9.30;;;3.13;;
16524;SDS011;8375;33.594;-117.718;2023-03-17T01:05:51;9.23;;;3.23;;
16524;SDS011;8375;33.594;-117.718;2023-03-17T01:08:21;9.53;;;3.13;;
16524;SDS011;8375;33.594;-117.718;2023-03-17T01:10:52;10.50;;;3.00;;
16524;SDS011;8375;33.594;-117.718;2023-03-17T01:13:21;8.07;;;2.97;;
16524;SDS011;8375;33.594;-117.718;2023-03-17T01:15:51;12.17;;;3.67;;
16524;SDS011;8375;33.594;-117.718;2023-03-17T01:18:21;9.53;;;2.93;;
16524;SDS011;8375;33.594;-117.718;2023-03-17T01:20:50;7.67;;;2.87;;
16524;SDS011;8375;33.594;-117.718;2023-03-17T01:23:19;9.13;;;2.87;;
16524;SDS011;8375;33.594;-117.718;2023-03-17T01:25:48;6.53;;;3.10;;
16524;SDS011;8375;33.594;-117.718;2023-03-17T01:28:19;12.13;;;3.50;;
16524;SDS011;8375;33.594;-117.718;2023-03-17T01:30:47;12.77;;;3.70;;
16524;SDS011;8375;33.594;-117.718;2023-03-17T01:33:16;11.03;;;3.50;;
16524;SDS011;8375;33.594;-117.718;2023-03-17T01:35:45;11.77;;;3.33;;
16524;SDS011;8375;33.594;-117.718;2023-03-17T01:38:14;12.73;;;3.67;;
16524;SDS011;8375;33.594;-117.718;2023-03-17T01:40:43;11.40;;;3.30;;
16524;SDS011;8375;33.594;-117.718;2023-03-17T01:43:20;7.57;;;2.87;;
16524;SDS011;8375;33.594;-117.718;2023-03-17T01:48:59;11.57;;;3.40;;
16524;SDS011;8375;33.594;-117.718;2023-03-17T01:51:39;11.13;;;3.07;;
16524;SDS011;8375;33.594;-117.718;2023-03-17T01:54:14;8.93;;;3.13;;
16524;SDS011;8375;33.594;-117.718;2023-03-17T01:56:46;8.47;;;3.17;;
16524;SDS011;8375;33.594;-117.718;2023-03-17T01:59:21;12.53;;;3.20;;
16524;SDS011;8375;33.594;-117.718;2023-03-17T02:01:54;10.90;;;3.13;;
16524;SDS011;8375;33.594;-117.718;2023-03-17T02:04:27;11.00;;;3.50;;
16524;SDS011;8375;33.594;-117.718;2023-03-17T02:06:57;12.10;;;3.07;;
16524;SDS011;8375;33.594;-117.718;2023-03-17T02:09:26;10.30;;;2.97;;
16524;SDS011;8375;33.594;-117.718;2023-03-17T02:11:56;25.70;;;3.33;;
16524;SDS011;8375;33.594;-117.718;2023-03-17T02:14:28;10.93;;;3.20;;
16524;SDS011;8375;33.594;-117.718;2023-03-17T02:16:57;7.70;;;2.50;;
16524;SDS011;8375;33.594;-117.718;2023-03-17T02:19:26;9.10;;;2.93;;
16524;SDS011;8375;33.594;-117.718;2023-03-17T02:21:57;9.10;;;2.77;;
16524;SDS011;8375;33.594;-117.718;2023-03-17T02:24:28;8.00;;;2.73;;
16524;SDS011;8375;33.594;-117.718;2023-03-17T02:27:02;7.47;;;3.10;;
16524;SDS011;8375;33.594;-117.718;2023-03-17T02:29:34;7.80;;;2.60;;
16524;SDS011;8375;33.594;-117.718;2023-03-17T02:32:03;8.50;;;2.50;;
16524;SDS011;8375;33.594;-117.718;2023-03-17T02:34:34;9.33;;;2.57;;
16524;SDS011;8375;33.594;-117.718;2023-03-17T02:37:05;6.93;;;2.40;;
16524;SDS011;8375;33.594;-117.718;2023-03-17T02:39:35;8.27;;;2.90;;
16524;SDS011;8375;33.594;-117.718;2023-03-17T02:42:04;6.70;;;2.77;;
16524;SDS011;8375;33.594;-117.718;2023-03-17T02:44:34;6.17;;;2.67;;
16524;SDS011;8375;33.594;-117.718;2023-03-17T02:47:04;8.43;;;2.80;;
16524;SDS011;8375;33.594;-117.718;2023-03-17T02:49:33;9.23;;;2.80;;
16524;SDS011;8375;33.594;-117.718;2023-03-17T02:52:06;7.10;;;2.83;;
16524;SDS011;8375;33.594;-117.718;2023-03-17T02:54:35;5.77;;;2.60;;
16524;SDS011;8375;33.594;-117.718;2023-03-17T02:57:04;12.13;;;3.03;;
16524;SDS011;8375;33.594;-117.718;2023-03-17T02:59:34;6.17;;;2.70;;
16524;SDS011;8375;33.594;-117.718;2023-03-17T03:02:03;12.47;;;3.27;;
16524;SDS011;8375;33.594;-117.718;2023-03-17T03:04:32;9.47;;;2.90;;
16524;SDS011;8375;33.594;-117.718;2023-03-17T03:07:01;8.30;;;2.80;;
16524;SDS011;8375;33.594;-117.718;2023-03-17T03:09:32;9.13;;;3.20;;
16524;SDS011;8375;33.594;-117.718;2023-03-17T03:12:01;7.73;;;3.13;;
16524;SDS011;8375;33.594;-117.718;2023-03-17T03:14:30;10.77;;;3.20;;
16524;SDS011;8375;33.594;-117.718;2023-03-17T03:16:58;8.73;;;2.93;;
16524;SDS011;8375;33.594;-117.718;2023-03-17T03:19:27;9.57;;;3.17;;
16524;SDS011;8375;33.594;-117.718;2023-03-17T03:21:56;7.23;;;3.13;;
16524;SDS011;8375;33.594;-117.718;2023-03-17T03:24:25;8.30;;;2.37;;
16524;SDS011;8375;33.594;-117.718;2023-03-17T03:26:57;7.77;;;2.60;;
16524;SDS011;8375;33.594;-117.718;2023-03-17T03:29:26;10.70;;;2.93;;
16524;SDS011;8375;33.594;-117.718;2023-03-17T03:31:55;8.00;;;2.60;;
16524;SDS011;8375;33.594;-117.718;2023-03-17T03:34:24;8.20;;;2.90;;
16524;SDS011;8375;33.594;-117.718;2023-03-17T03:36:54;13.13;;;3.30;;
16524;SDS011;8375;33.594;-117.718;2023-03-17T03:39:24;12.57;;;3.43;;
16524;SDS011;8375;33.594;-117.718;2023-03-17T03:41:53;7.87;;;2.90;;
16524;SDS011;8375;33.594;-117.718;2023-03-17T03:44:24;8.50;;;3.00;;
16524;SDS011;8375;33.594;-117.718;2023-03-17T03:46:53;10.20;;;3.27;;
16524;SDS011;8375;33.594;-117.718;2023-03-17T03:49:28;10.83;;;3.03;;
16524;SDS011;8375;33.594;-117.718;2023-03-17T03:51:57;13.43;;;3.77;;
16524;SDS011;8375;33.594;-117.718;2023-03-17T03:54:27;9.53;;;3.60;;
16524;SDS011;8375;33.594;-117.718;2023-03-17T03:56:57;12.23;;;3.60;;
16524;SDS011;8375;33.594;-117.718;2023-03-17T03:59:28;10.93;;;4.13;;
16524;SDS011;8375;33.594;-117.718;2023-03-17T04:01:57;13.20;;;3.67;;
16524;SDS011;8375;33.594;-117.718;2023-03-17T04:04:27;11.90;;;3.37;;
16524;SDS011;8375;33.594;-117.718;2023-03-17T04:06:57;11.67;;;3.63;;
16524;SDS011;8375;33.594;-117.718;2023-03-17T04:09:28;13.97;;;3.90;;
16524;SDS011;8375;33.594;-117.718;2023-03-17T04:11:56;10.73;;;3.20;;
16524;SDS011;8375;33.594;-117.718;2023-03-17T04:14:26;8.63;;;3.47;;
16524;SDS011;8375;33.594;-117.718;2023-03-17T04:16:57;13.30;;;3.60;;
16524;SDS011;8375;33.594;-117.718;2023-03-17T04:19:27;8.57;;;3.30;;
16524;SDS011;8375;33.594;-117.718;2023-03-17T04:21:56;16.57;;;4.00;;
16524;SDS011;8375;33.594;-117.718;2023-03-17T04:24:25;10.97;;;4.00;;
16524;SDS011;8375;33.594;-117.718;2023-03-17T04:26:54;8.10;;;3.17;;
16524;SDS011;8375;33.594;-117.718;2023-03-17T04:29:31;13.30;;;3.73;;
16524;SDS011;8375;33.594;-117.718;2023-03-17T04:32:00;8.47;;;3.30;;
16524;SDS011;8375;33.594;-117.718;2023-03-17T04:34:28;9.30;;;3.50;;
16524;SDS011;8375;33.594;-117.718;2023-03-17T04:36:57;10.40;;;3.30;;
16524;SDS011;8375;33.594;-117.718;2023-03-17T04:39:26;7.83;;;3.50;;
16524;SDS011;8375;33.594;-117.718;2023-03-17T04:41:54;8.93;;;3.40;;
16524;SDS011;8375;33.594;-117.718;2023-03-17T04:44:23;9.47;;;3.33;;
16524;SDS011;8375;33.594;-117.718;2023-03-17T04:46:54;11.20;;;3.80;;
16524;SDS011;8375;33.594;-117.718;2023-03-17T04:49:23;8.03;;;3.33;;
16524;SDS011;8375;33.594;-117.718;2023-03-17T04:51:51;8.40;;;3.20;;
16524;SDS011;8375;33.594;-117.718;2023-03-17T04:54:20;7.60;;;3.33;;
16524;SDS011;8375;33.594;-117.718;2023-03-17T04:56:49;12.87;;;3.90;;
16524;SDS011;8375;33.594;-117.718;2023-03-17T04:59:18;8.43;;;4.00;;
16524;SDS011;8375;33.594;-117.718;2023-03-17T05:01:47;11.60;;;3.43;;
16524;SDS011;8375;33.594;-117.718;2023-03-17T05:04:17;11.77;;;3.87;;
16524;SDS011;8375;33.594;-117.718;2023-03-17T05:06:46;12.17;;;4.20;;
16524;SDS011;8375;33.594;-117.718;2023-03-17T05:09:16;11.93;;;4.13;;
16524;SDS011;8375;33.594;-117.718;2023-03-17T05:11:45;6.60;;;3.70;;
16524;SDS011;8375;33.594;-117.718;2023-03-17T05:14:14;10.77;;;4.33;;
16524;SDS011;8375;33.594;-117.718;2023-03-17T05:16:44;12.43;;;3.73;;
16524;SDS011;8375;33.594;-117.718;2023-03-17T05:19:14;12.17;;;4.13;;
16524;SDS011;8375;33.594;-117.718;2023-03-17T05:21:44;10.97;;;3.70;;
16524;SDS011;8375;33.594;-117.718;2023-03-17T05:24:13;6.50;;;3.80;;
16524;SDS011;8375;33.594;-117.718;2023-03-17T05:26:42;8.80;;;3.67;;
16524;SDS011;8375;33.594;-117.718;2023-03-17T05:29:11;11.33;;;3.87;;
16524;SDS011;8375;33.594;-117.718;2023-03-17T05:31:40;10.87;;;4.40;;
16524;SDS011;8375;33.594;-117.718;2023-03-17T05:34:08;8.37;;;4.43;;
16524;SDS011;8375;33.594;-117.718;2023-03-17T05:36:37;8.60;;;4.07;;
16524;SDS011;8375;33.594;-117.718;2023-03-17T05:39:07;13.97;;;4.43;;
16524;SDS011;8375;33.594;-117.718;2023-03-17T05:41:36;7.67;;;3.70;;
16524;SDS011;8375;33.594;-117.718;2023-03-17T05:44:05;11.73;;;4.37;;
16524;SDS011;8375;33.594;-117.718;2023-03-17T05:46:35;9.80;;;4.10;;
16524;SDS011;8375;33.594;-117.718;2023-03-17T05:49:03;11.00;;;3.70;;
16524;SDS011;8375;33.594;-117.718;2023-03-17T05:51:32;9.13;;;4.10;;
16524;SDS011;8375;33.594;-117.718;2023-03-17T05:54:01;11.20;;;3.43;;
16524;SDS011;8375;33.594;-117.718;2023-03-17T05:56:31;10.03;;;4.03;;
16524;SDS011;8375;33.594;-117.718;2023-03-17T05:59:00;12.17;;;3.80;;
16524;SDS011;8375;33.594;-117.718;2023-03-17T06:01:29;8.50;;;3.77;;
16524;SDS011;8375;33.594;-117.718;2023-03-17T06:03:58;9.77;;;3.70;;
16524;SDS011;8375;33.594;-117.718;2023-03-17T06:06:27;11.03;;;4.07;;
16524;SDS011;8375;33.594;-117.718;2023-03-17T06:08:55;10.67;;;3.80;;
16524;SDS011;8375;33.594;-117.718;2023-03-17T06:11:24;11.83;;;4.00;;
16524;SDS011;8375;33.594;-117.718;2023-03-17T06:13:54;10.33;;;4.23;;
16524;SDS011;8375;33.594;-117.718;2023-03-17T06:16:23;9.50;;;3.50;;
16524;SDS011;8375;33.594;-117.718;2023-03-17T06:18:53;11.53;;;4.43;;
16524;SDS011;8375;33.594;-117.718;2023-03-17T06:21:22;11.90;;;4.30;;
16524;SDS011;8375;33.594;-117.718;2023-03-17T06:23:50;9.70;;;3.97;;
16524;SDS011;8375;33.594;-117.718;2023-03-17T06:26:19;7.23;;;3.93;;
16524;SDS011;8375;33.594;-117.718;2023-03-17T06:28:48;8.20;;;3.73;;
16524;SDS011;8375;33.594;-117.718;2023-03-17T06:31:19;9.67;;;4.50;;
16524;SDS011;8375;33.594;-117.718;2023-03-17T06:33:49;12.93;;;4.87;;
16524;SDS011;8375;33.594;-117.718;2023-03-17T06:36:18;14.27;;;4.73;;
16524;SDS011;8375;33.594;-117.718;2023-03-17T06:38:47;15.23;;;4.33;;
16524;SDS011;8375;33.594;-117.718;2023-03-17T06:41:17;12.43;;;4.60;;
16524;SDS011;8375;33.594;-117.718;2023-03-17T06:43:45;10.03;;;4.63;;
16524;SDS011;8375;33.594;-117.718;2023-03-17T06:46:14;15.10;;;4.60;;
16524;SDS011;8375;33.594;-117.718;2023-03-17T06:48:45;13.43;;;4.93;;
16524;SDS011;8375;33.594;-117.718;2023-03-17T06:51:14;12.13;;;4.73;;
16524;SDS011;8375;33.594;-117.718;2023-03-17T06:53:42;12.07;;;4.93;;
16524;SDS011;8375;33.594;-117.718;2023-03-17T06:56:11;7.67;;;4.40;;
16524;SDS011;8375;33.594;-117.718;2023-03-17T06:58:40;13.10;;;4.23;;
16524;SDS011;8375;33.594;-117.718;2023-03-17T07:01:10;10.90;;;4.80;;
16524;SDS011;8375;33.594;-117.718;2023-03-17T07:03:39;12.23;;;4.87;;
16524;SDS011;8375;33.594;-117.718;2023-03-17T07:06:10;11.43;;;5.00;;
16524;SDS011;8375;33.594;-117.718;2023-03-17T07:08:39;8.63;;;4.60;;
16524;SDS011;8375;33.594;-117.718;2023-03-17T07:11:07;11.23;;;4.80;;
16524;SDS011;8375;33.594;-117.718;2023-03-17T07:13:36;9.40;;;4.63;;
16524;SDS011;8375;33.594;-117.718;2023-03-17T07:16:05;12.37;;;4.50;;
16524;SDS011;8375;33.594;-117.718;2023-03-17T07:18:49;11.70;;;5.30;;
16524;SDS011;8375;33.594;-117.718;2023-03-17T07:21:18;10.97;;;4.70;;
16524;SDS011;8375;33.594;-117.718;2023-03-17T07:23:46;12.10;;;5.03;;
16524;SDS011;8375;33.594;-117.718;2023-03-17T07:26:15;10.87;;;4.43;;
16524;SDS011;8375;33.594;-117.718;2023-03-17T07:28:44;11.93;;;4.50;;
16524;SDS011;8375;33.594;-117.718;2023-03-17T07:31:12;9.43;;;4.20;;
16524;SDS011;8375;33.594;-117.718;2023-03-17T07:33:41;9.63;;;4.63;;
16524;SDS011;8375;33.594;-117.718;2023-03-17T07:36:11;10.70;;;4.93;;
16524;SDS011;8375;33.594;-117.718;2023-03-17T07:38:40;10.00;;;4.60;;
16524;SDS011;8375;33.594;-117.718;2023-03-17T07:41:09;14.70;;;4.87;;
16524;SDS011;8375;33.594;-117.718;2023-03-17T07:43:38;11.23;;;4.27;;
16524;SDS011;8375;33.594;-117.718;2023-03-17T07:46:07;9.90;;;5.00;;
16524;SDS011;8375;33.594;-117.718;2023-03-17T07:48:35;10.97;;;4.70;;
16524;SDS011;8375;33.594;-117.718;2023-03-17T07:51:08;9.00;;;4.97;;
16524;SDS011;8375;33.594;-117.718;2023-03-17T07:53:41;12.77;;;5.30;;
16524;SDS011;8375;33.594;-117.718;2023-03-17T07:56:11;7.70;;;4.47;;
16524;SDS011;8375;33.594;-117.718;2023-03-17T07:58:39;12.20;;;4.90;;
16524;SDS011;8375;33.594;-117.718;2023-03-17T08:01:08;8.27;;;4.60;;
16524;SDS011;8375;33.594;-117.718;2023-03-17T08:03:37;16.13;;;5.40;;
16524;SDS011;8375;33.594;-117.718;2023-03-17T08:06:06;12.87;;;4.90;;
16524;SDS011;8375;33.594;-117.718;2023-03-17T08:08:37;16.13;;;5.10;;
16524;SDS011;8375;33.594;-117.718;2023-03-17T08:11:05;12.47;;;4.83;;
16524;SDS011;8375;33.594;-117.718;2023-03-17T08:13:34;10.77;;;5.07;;
16524;SDS011;8375;33.594;-117.718;2023-03-17T08:16:03;13.07;;;5.10;;
16524;SDS011;8375;33.594;-117.718;2023-03-17T08:18:32;12.07;;;5.80;;
16524;SDS011;8375;33.594;-117.718;2023-03-17T08:21:01;11.47;;;5.30;;
16524;SDS011;8375;33.594;-117.718;2023-03-17T08:23:30;13.50;;;5.37;;
16524;SDS011;8375;33.594;-117.718;2023-03-17T08:26:01;10.80;;;5.33;;
16524;SDS011;8375;33.594;-117.718;2023-03-17T08:28:31;12.37;;;5.17;;
16524;SDS011;8375;33.594;-117.718;2023-03-17T08:31:07;15.20;;;5.50;;
16524;SDS011;8375;33.594;-117.718;2023-03-17T08:33:37;9.30;;;5.40;;
16524;SDS011;8375;33.594;-117.718;2023-03-17T08:36:07;13.13;;;5.33;;
16524;SDS011;8375;33.594;-117.718;2023-03-17T08:38:37;10.10;;;5.87;;
16524;SDS011;8375;33.594;-117.718;2023-03-17T08:41:10;10.13;;;5.90;;
16524;SDS011;8375;33.594;-117.718;2023-03-17T08:43:41;12.00;;;5.73;;
16524;SDS011;8375;33.594;-117.718;2023-03-17T08:46:12;12.63;;;5.43;;
16524;SDS011;8375;33.594;-117.718;2023-03-17T08:48:43;11.87;;;5.63;;
16524;SDS011;8375;33.594;-117.718;2023-03-17T08:51:13;9.37;;;5.10;;
16524;SDS011;8375;33.594;-117.718;2023-03-17T08:53:42;13.33;;;6.00;;
16524;SDS011;8375;33.594;-117.718;2023-03-17T08:56:13;9.47;;;6.20;;
16524;SDS011;8375;33.594;-117.718;2023-03-17T08:58:43;12.37;;;5.40;;
16524;SDS011;8375;33.594;-117.718;2023-03-17T09:01:12;9.90;;;6.10;;
16524;SDS011;8375;33.594;-117.718;2023-03-17T09:03:42;9.33;;;6.17;;
16524;SDS011;8375;33.594;-117.718;2023-03-17T09:06:11;12.50;;;5.80;;
16524;SDS011;8375;33.594;-117.718;2023-03-17T09:08:40;17.33;;;5.90;;
16524;SDS011;8375;33.594;-117.718;2023-03-17T09:11:14;15.63;;;6.37;;
16524;SDS011;8375;33.594;-117.718;2023-03-17T09:13:45;13.37;;;6.00;;
16524;SDS011;8375;33.594;-117.718;2023-03-17T09:16:14;11.07;;;5.97;;
16524;SDS011;8375;33.594;-117.718;2023-03-17T09:18:43;12.40;;;6.33;;
16524;SDS011;8375;33.594;-117.718;2023-03-17T09:21:12;12.30;;;6.70;;
16524;SDS011;8375;33.594;-117.718;2023-03-17T09:23:42;13.37;;;6.40;;
16524;SDS011;8375;33.594;-117.718;2023-03-17T09:26:11;12.10;;;6.27;;
16524;SDS011;8375;33.594;-117.718;2023-03-17T09:28:41;13.10;;;6.40;;
16524;SDS011;8375;33.594;-117.718;2023-03-17T09:31:10;12.90;;;6.17;;
16524;SDS011;8375;33.594;-117.718;2023-03-17T09:33:39;10.30;;;5.37;;
16524;SDS011;8375;33.594;-117.718;2023-03-17T09:36:08;13.83;;;6.00;;
16524;SDS011;8375;33.594;-117.718;2023-03-17T09:38:38;13.30;;;5.60;;
16524;SDS011;8375;33.594;-117.718;2023-03-17T09:44:10;11.63;;;5.87;;
16524;SDS011;8375;33.594;-117.718;2023-03-17T09:46:46;10.40;;;5.43;;
16524;SDS011;8375;33.594;-117.718;2023-03-17T09:49:23;11.07;;;5.37;;
16524;SDS011;8375;33.594;-117.718;2023-03-17T09:52:02;11.33;;;5.80;;
16524;SDS011;8375;33.594;-117.718;2023-03-17T09:54:32;11.80;;;5.63;;
16524;SDS011;8375;33.594;-117.718;2023-03-17T09:57:05;13.33;;;5.57;;
16524;SDS011;8375;33.594;-117.718;2023-03-17T09:59:41;11.23;;;6.03;;
16524;SDS011;8375;33.594;-117.718;2023-03-17T10:02:14;12.73;;;6.40;;
16524;SDS011;8375;33.594;-117.718;2023-03-17T10:04:48;13.47;;;6.37;;
16524;SDS011;8375;33.594;-117.718;2023-03-17T10:07:18;12.27;;;6.00;;
16524;SDS011;8375;33.594;-117.718;2023-03-17T10:09:53;13.50;;;6.10;;
16524;SDS011;8375;33.594;-117.718;2023-03-17T10:12:34;13.30;;;5.97;;
16524;SDS011;8375;33.594;-117.718;2023-03-17T10:15:13;13.60;;;5.63;;
16524;SDS011;8375;33.594;-117.718;2023-03-17T10:17:45;13.73;;;6.63;;
16524;SDS011;8375;33.594;-117.718;2023-03-17T10:20:16;12.97;;;5.47;;
16524;SDS011;8375;33.594;-117.718;2023-03-17T10:22:51;11.30;;;5.93;;
16524;SDS011;8375;33.594;-117.718;2023-03-17T10:25:23;16.47;;;6.10;;
16524;SDS011;8375;33.594;-117.718;2023-03-17T10:27:57;10.27;;;5.73;;
16524;SDS011;8375;33.594;-117.718;2023-03-17T10:30:29;9.27;;;5.80;;
16524;SDS011;8375;33.594;-117.718;2023-03-17T10:33:01;12.63;;;6.33;;
16524;SDS011;8375;33.594;-117.718;2023-03-17T10:35:31;14.03;;;5.70;;
16524;SDS011;8375;33.594;-117.718;2023-03-17T10:38:01;11.47;;;5.97;;
16524;SDS011;8375;33.594;-117.718;2023-03-17T10:40:43;9.93;;;6.27;;
16524;SDS011;8375;33.594;-117.718;2023-03-17T10:43:19;12.73;;;6.50;;
16524;SDS011;8375;33.594;-117.718;2023-03-17T10:45:58;14.40;;;6.23;;
16524;SDS011;8375;33.594;-117.718;2023-03-17T10:48:28;13.70;;;6.00;;
16524;SDS011;8375;33.594;-117.718;2023-03-17T10:50:58;12.93;;;5.50;;
16524;SDS011;8375;33.594;-117.718;2023-03-17T10:53:35;12.47;;;6.10;;
16524;SDS011;8375;33.594;-117.718;2023-03-17T10:56:09;13.57;;;6.37;;
16524;SDS011;8375;33.594;-117.718;2023-03-17T10:58:47;15.03;;;5.67;;
16524;SDS011;8375;33.594;-117.718;2023-03-17T11:01:20;13.13;;;6.23;;
16524;SDS011;8375;33.594;-117.718;2023-03-17T11:03:54;11.03;;;5.73;;
16524;SDS011;8375;33.594;-117.718;2023-03-17T11:06:30;13.50;;;5.63;;
16524;SDS011;8375;33.594;-117.718;2023-03-17T11:09:05;10.60;;;5.63;;
16524;SDS011;8375;33.594;-117.718;2023-03-17T11:11:41;12.73;;;4.90;;
16524;SDS011;8375;33.594;-117.718;2023-03-17T11:14:13;9.27;;;5.43;;
16524;SDS011;8375;33.594;-117.718;2023-03-17T11:16:47;13.43;;;6.03;;
16524;SDS011;8375;33.594;-117.718;2023-03-17T11:19:21;13.10;;;5.50;;
16524;SDS011;8375;33.594;-117.718;2023-03-17T11:21:58;14.07;;;5.57;;
16524;SDS011;8375;33.594;-117.718;2023-03-17T11:24:36;13.77;;;6.33;;
16524;SDS011;8375;33.594;-117.718;2023-03-17T11:27:16;15.07;;;6.10;;
16524;SDS011;8375;33.594;-117.718;2023-03-17T11:29:55;14.47;;;5.83;;
16524;SDS011;8375;33.594;-117.718;2023-03-17T11:32:42;9.20;;;6.00;;
16524;SDS011;8375;33.594;-117.718;2023-03-17T11:35:23;12.67;;;6.27;;
16524;SDS011;8375;33.594;-117.718;2023-03-17T11:38:12;12.93;;;5.57;;
16524;SDS011;8375;33.594;-117.718;2023-03-17T11:40:56;12.50;;;5.70;;
16524;SDS011;8375;33.594;-117.718;2023-03-17T11:43:51;11.07;;;5.37;;
16524;SDS011;8375;33.594;-117.718;2023-03-17T11:46:35;12.23;;;5.50;;
16524;SDS011;8375;33.594;-117.718;2023-03-17T11:49:10;10.50;;;5.70;;
16524;SDS011;8375;33.594;-117.718;2023-03-17T11:51:47;13.97;;;6.27;;
16524;SDS011;8375;33.594;-117.718;2023-03-17T11:54:25;9.30;;;6.10;;
16524;SDS011;8375;33.594;-117.718;2023-03-17T11:57:04;11.83;;;5.93;;
16524;SDS011;8375;33.594;-117.718;2023-03-17T11:59:40;11.37;;;5.93;;
16524;SDS011;8375;33.594;-117.718;2023-03-17T12:02:20;11.63;;;6.03;;
16524;SDS011;8375;33.594;-117.718;2023-03-17T12:04:56;12.70;;;6.40;;
16524;SDS011;8375;33.594;-117.718;2023-03-17T12:07:30;14.60;;;5.80;;
16524;SDS011;8375;33.594;-117.718;2023-03-17T12:10:05;12.57;;;6.73;;
16524;SDS011;8375;33.594;-117.718;2023-03-17T12:12:43;19.60;;;6.53;;
16524;SDS011;8375;33.594;-117.718;2023-03-17T12:15:18;13.60;;;6.10;;
16524;SDS011;8375;33.594;-117.718;2023-03-17T12:17:57;8.00;;;6.00;;
16524;SDS011;8375;33.594;-117.718;2023-03-17T12:20:29;11.80;;;6.07;;
16524;SDS011;8375;33.594;-117.718;2023-03-17T12:23:02;11.20;;;6.37;;
16524;SDS011;8375;33.594;-117.718;2023-03-17T12:25:39;15.23;;;6.77;;
16524;SDS011;8375;33.594;-117.718;2023-03-17T12:28:16;11.73;;;5.87;;
16524;SDS011;8375;33.594;-117.718;2023-03-17T12:30:52;12.97;;;6.20;;
16524;SDS011;8375;33.594;-117.718;2023-03-17T12:33:26;15.67;;;6.00;;
16524;SDS011;8375;33.594;-117.718;2023-03-17T12:36:02;11.03;;;6.33;;
16524;SDS011;8375;33.594;-117.718;2023-03-17T12:38:33;9.80;;;6.33;;
16524;SDS011;8375;33.594;-117.718;2023-03-17T12:41:13;10.67;;;5.97;;
16524;SDS011;8375;33.594;-117.718;2023-03-17T12:43:58;12.87;;;6.03;;
16524;SDS011;8375;33.594;-117.718;2023-03-17T12:46:36;11.60;;;5.83;;
16524;SDS011;8375;33.594;-117.718;2023-03-17T12:49:28;10.57;;;5.80;;
16524;SDS011;8375;33.594;-117.718;2023-03-17T12:52:25;13.13;;;6.00;;
16524;SDS011;8375;33.594;-117.718;2023-03-17T12:55:04;13.53;;;5.90;;
16524;SDS011;8375;33.594;-117.718;2023-03-17T12:57:40;11.40;;;6.00;;
16524;SDS011;8375;33.594;-117.718;2023-03-17T13:00:16;10.07;;;5.93;;
16524;SDS011;8375;33.594;-117.718;2023-03-17T13:03:05;10.20;;;5.70;;
16524;SDS011;8375;33.594;-117.718;2023-03-17T13:05:42;10.83;;;6.30;;
16524;SDS011;8375;33.594;-117.718;2023-03-17T13:08:14;10.40;;;5.93;;
16524;SDS011;8375;33.594;-117.718;2023-03-17T13:10:49;9.10;;;5.50;;
16524;SDS011;8375;33.594;-117.718;2023-03-17T13:13:44;9.87;;;5.50;;
16524;SDS011;8375;33.594;-117.718;2023-03-17T13:16:30;15.77;;;5.93;;
16524;SDS011;8375;33.594;-117.718;2023-03-17T13:19:16;10.63;;;5.93;;
16524;SDS011;8375;33.594;-117.718;2023-03-17T13:22:22;10.67;;;6.00;;
16524;SDS011;8375;33.594;-117.718;2023-03-17T13:25:14;9.87;;;6.00;;
16524;SDS011;8375;33.594;-117.718;2023-03-17T13:28:00;8.33;;;5.33;;
16524;SDS011;8375;33.594;-117.718;2023-03-17T13:30:55;9.83;;;5.90;;
16524;SDS011;8375;33.594;-117.718;2023-03-17T13:33:35;10.37;;;5.73;;
16524;SDS011;8375;33.594;-117.718;2023-03-17T13:36:15;9.87;;;5.30;;
16524;SDS011;8375;33.594;-117.718;2023-03-17T13:42:20;12.10;;;5.53;;
16524;SDS011;8375;33.594;-117.718;2023-03-17T13:45:09;12.30;;;6.03;;
16524;SDS011;8375;33.594;-117.718;2023-03-17T13:47:46;11.33;;;6.67;;
16524;SDS011;8375;33.594;-117.718;2023-03-17T13:50:20;10.93;;;5.50;;
16524;SDS011;8375;33.594;-117.718;2023-03-17T13:52:53;9.17;;;5.07;;
16524;SDS011;8375;33.594;-117.718;2023-03-17T13:55:34;13.40;;;6.50;;
16524;SDS011;8375;33.594;-117.718;2023-03-17T13:58:16;13.63;;;6.67;;
16524;SDS011;8375;33.594;-117.718;2023-03-17T14:00:59;14.27;;;6.27;;
16524;SDS011;8375;33.594;-117.718;2023-03-17T14:03:39;13.30;;;5.97;;
16524;SDS011;8375;33.594;-117.718;2023-03-17T14:06:13;13.20;;;6.60;;
16524;SDS011;8375;33.594;-117.718;2023-03-17T14:08:45;13.33;;;7.03;;
16524;SDS011;8375;33.594;-117.718;2023-03-17T14:11:18;10.27;;;5.80;;
16524;SDS011;8375;33.594;-117.718;2023-03-17T14:14:01;12.80;;;6.60;;
16524;SDS011;8375;33.594;-117.718;2023-03-17T14:16:51;11.13;;;6.53;;
16524;SDS011;8375;33.594;-117.718;2023-03-17T14:19:25;15.20;;;7.10;;
16524;SDS011;8375;33.594;-117.718;2023-03-17T14:22:01;11.00;;;6.80;;
16524;SDS011;8375;33.594;-117.718;2023-03-17T14:24:31;14.13;;;6.97;;
16524;SDS011;8375;33.594;-117.718;2023-03-17T14:27:02;12.30;;;6.83;;
16524;SDS011;8375;33.594;-117.718;2023-03-17T14:29:35;12.43;;;6.43;;
16524;SDS011;8375;33.594;-117.718;2023-03-17T14:32:05;14.03;;;6.73;;
16524;SDS011;8375;33.594;-117.718;2023-03-17T14:34:41;16.33;;;6.80;;
16524;SDS011;8375;33.594;-117.718;2023-03-17T14:37:10;8.97;;;5.80;;
16524;SDS011;8375;33.594;-117.718;2023-03-17T14:39:42;11.10;;;6.00;;
16524;SDS011;8375;33.594;-117.718;2023-03-17T14:42:12;13.60;;;7.10;;
16524;SDS011;8375;33.594;-117.718;2023-03-17T14:44:42;11.00;;;6.50;;
16524;SDS011;8375;33.594;-117.718;2023-03-17T14:47:12;8.97;;;6.00;;
16524;SDS011;8375;33.594;-117.718;2023-03-17T14:49:45;12.17;;;6.97;;
16524;SDS011;8375;33.594;-117.718;2023-03-17T14:52:19;11.83;;;6.90;;